createdAt,value
2018-05-07T00:01:20.322Z,101377
2018-05-07T00:03:50.433Z,101379
2018-05-07T00:06:18.989Z,101375
2018-05-07T00:08:47.290Z,101381
2018-05-07T00:11:15.680Z,101378
2018-05-07T00:13:44.768Z,101376
2018-05-07T00:16:13.165Z,101368
2018-05-07T00:18:41.452Z,101368
2018-05-07T00:21:10.632Z,101365
2018-05-07T00:23:39.019Z,101366
2018-05-07T00:26:08.065Z,101367
2018-05-07T00:28:37.700Z,101367
2018-05-07T00:31:06.077Z,101365
2018-05-07T00:33:35.223Z,101363
2018-05-07T00:36:03.671Z,101361
2018-05-07T00:38:32.253Z,101362
2018-05-07T00:41:01.329Z,101368
2018-05-07T00:43:29.660Z,101358
2018-05-07T00:45:58.273Z,101361
2018-05-07T00:48:26.729Z,101361
2018-05-07T00:50:55.060Z,101360
2018-05-07T00:53:24.169Z,101364
2018-05-07T00:55:52.512Z,101363
2018-05-07T00:58:20.783Z,101362
2018-05-07T01:00:49.105Z,101361
2018-05-07T01:03:18.146Z,101362
2018-05-07T01:05:46.498Z,101366
2018-05-07T01:08:14.794Z,101366
2018-05-07T01:10:43.098Z,101371
2018-05-07T01:13:11.463Z,101369
2018-05-07T01:15:39.950Z,101373
2018-05-07T01:18:08.369Z,101372
2018-05-07T01:20:36.735Z,101375
2018-05-07T01:23:06.058Z,101381
2018-05-07T01:25:35.150Z,101380
2018-05-07T01:28:04.402Z,101378
2018-05-07T01:30:34.573Z,101377
2018-05-07T01:33:04.910Z,101379
2018-05-07T01:35:33.223Z,101378
2018-05-07T01:38:01.508Z,101382
2018-05-07T01:40:29.846Z,101379
2018-05-07T01:42:58.197Z,101377
2018-05-07T01:45:27.229Z,101379
2018-05-07T01:47:55.617Z,101370
2018-05-07T01:50:23.934Z,101376
2018-05-07T01:52:52.248Z,101372
2018-05-07T01:55:20.549Z,101376
2018-05-07T01:57:48.845Z,101375
2018-05-07T02:00:17.430Z,101375
2018-05-07T02:02:45.735Z,101375
2018-05-07T02:05:14.006Z,101371
2018-05-07T02:07:42.329Z,101376
2018-05-07T02:10:10.605Z,101375
2018-05-07T02:12:38.907Z,101371
2018-05-07T02:15:07.232Z,101365
2018-05-07T02:17:35.535Z,101372
2018-05-07T02:20:03.973Z,101371
2018-05-07T02:22:33.059Z,101374
2018-05-07T02:25:02.198Z,101369
2018-05-07T02:27:30.528Z,101373
2018-05-07T02:29:58.874Z,101366
2018-05-07T02:32:27.193Z,101358
2018-05-07T02:34:56.470Z,101363
2018-05-07T02:37:25.086Z,101364
2018-05-07T02:39:54.225Z,101360
2018-05-07T02:42:22.535Z,101357
2018-05-07T02:44:51.668Z,101355
2018-05-07T02:47:19.966Z,101358
2018-05-07T02:49:48.405Z,101356
2018-05-07T02:52:17.479Z,101353
2018-05-07T02:54:45.790Z,101344
2018-05-07T02:57:16.042Z,101348
2018-05-07T02:59:44.310Z,101349
2018-05-07T03:02:12.752Z,101345
2018-05-07T03:04:41.133Z,101349
2018-05-07T03:07:09.485Z,101352
2018-05-07T03:09:37.791Z,101349
2018-05-07T03:12:06.365Z,101349
2018-05-07T03:14:35.581Z,101342
2018-05-07T03:17:04.803Z,101341
2018-05-07T03:19:33.105Z,101339
2018-05-07T03:22:01.397Z,101336
2018-05-07T03:24:29.733Z,101332
2018-05-07T03:26:58.188Z,101337
2018-05-07T03:29:26.635Z,101333
2018-05-07T03:31:54.937Z,101333
2018-05-07T03:34:24.230Z,101328
2018-05-07T03:36:53.490Z,101323
2018-05-07T03:39:21.850Z,101306
2018-05-07T03:41:50.133Z,101318
2018-05-07T03:44:18.575Z,101319
2018-05-07T03:46:47.624Z,101320
2018-05-07T03:49:16.059Z,101325
2018-05-07T03:51:45.310Z,101318
2018-05-07T03:54:13.719Z,101318
2018-05-07T03:56:42.785Z,101316
2018-05-07T03:59:12.755Z,101316
2018-05-07T04:01:41.211Z,101308
2018-05-07T04:04:09.465Z,101311
2018-05-07T04:06:37.779Z,101309
2018-05-07T04:09:06.855Z,101301
2018-05-07T04:11:35.152Z,101299
2018-05-07T04:14:04.255Z,101302
2018-05-07T04:16:50.074Z,101304
2018-05-07T04:22:44.468Z,101298
2018-05-07T04:25:12.770Z,101299
2018-05-07T04:27:41.105Z,101304
2018-05-07T04:30:09.424Z,101307
2018-05-07T04:32:37.800Z,101302
2018-05-07T04:35:06.190Z,101305
2018-05-07T04:37:34.485Z,101306
2018-05-07T04:40:02.811Z,101301
2018-05-07T04:42:31.098Z,101301
2018-05-07T04:44:59.416Z,101304
2018-05-07T04:47:27.694Z,101301
2018-05-07T04:49:55.986Z,101308
2018-05-07T04:52:25.070Z,101305
2018-05-07T04:54:54.136Z,101311
2018-05-07T04:57:22.453Z,101313
2018-05-07T04:59:51.664Z,101314
2018-05-07T05:02:19.994Z,101307
2018-05-07T05:04:48.620Z,101307
2018-05-07T05:07:17.065Z,101310
2018-05-07T05:09:46.194Z,101313
2018-05-07T05:12:15.294Z,101317
2018-05-07T05:14:44.531Z,101316
2018-05-07T05:17:12.925Z,101313
2018-05-07T05:19:41.288Z,101316
2018-05-07T05:22:09.597Z,101305
2018-05-07T05:24:37.903Z,101306
2018-05-07T05:27:06.255Z,101302
2018-05-07T05:29:35.438Z,101303
2018-05-07T05:32:03.724Z,101302
2018-05-07T05:34:32.041Z,101307
2018-05-07T05:37:00.324Z,101305
2018-05-07T05:39:28.746Z,101301
2018-05-07T05:41:57.714Z,101302
2018-05-07T05:44:26.036Z,101297
2018-05-07T05:46:55.126Z,101296
2018-05-07T05:49:23.429Z,101299
2018-05-07T05:51:51.740Z,101298
2018-05-07T05:54:20.120Z,101299
2018-05-07T05:56:48.514Z,101299
2018-05-07T05:59:16.837Z,101301
2018-05-07T06:01:45.380Z,101303
2018-05-07T06:04:13.797Z,101307
2018-05-07T06:06:42.130Z,101306
2018-05-07T06:09:11.762Z,101306
2018-05-07T06:11:40.140Z,101309
2018-05-07T06:14:09.595Z,101310
2018-05-07T06:16:37.925Z,101301
2018-05-07T06:19:06.215Z,101298
2018-05-07T06:21:35.406Z,101297
2018-05-07T06:24:04.639Z,101296
2018-05-07T06:26:32.944Z,101298
2018-05-07T06:29:01.234Z,101292
2018-05-07T06:31:29.664Z,101293
2018-05-07T06:33:58.096Z,101287
2018-05-07T06:36:26.684Z,101292
2018-05-07T06:38:56.189Z,101292
2018-05-07T06:41:24.716Z,101288
2018-05-07T06:43:53.116Z,101288
2018-05-07T06:46:21.516Z,101289
2018-05-07T06:48:49.921Z,101290
2018-05-07T06:51:19.023Z,101287
2018-05-07T06:53:48.076Z,101288
2018-05-07T06:56:16.350Z,101282
2018-05-07T06:58:45.800Z,101286
2018-05-07T07:01:15.046Z,101288
2018-05-07T07:03:43.480Z,101292
2018-05-07T07:06:12.785Z,101290
2018-05-07T07:08:42.000Z,101287
2018-05-07T07:11:10.216Z,101294
2018-05-07T07:13:38.580Z,101294
2018-05-07T07:16:06.889Z,101285
2018-05-07T07:18:35.316Z,101280
2018-05-07T07:21:03.606Z,101276
2018-05-07T07:23:32.095Z,101277
2018-05-07T07:26:00.461Z,101273
2018-05-07T07:28:28.904Z,101271
2018-05-07T07:30:58.012Z,101272
2018-05-07T07:33:26.383Z,101267
2018-05-07T07:35:54.669Z,101267
2018-05-07T07:38:23.141Z,101274
2018-05-07T07:40:53.458Z,101274
2018-05-07T07:43:22.672Z,101272
2018-05-07T07:45:51.189Z,101277
2018-05-07T07:48:19.462Z,101277
2018-05-07T07:50:47.789Z,101272
2018-05-07T07:53:17.660Z,101274
2018-05-07T07:55:46.085Z,101272
2018-05-07T07:58:15.342Z,101270
2018-05-07T08:00:43.721Z,101271
2018-05-07T08:03:12.109Z,101268
2018-05-07T08:05:40.426Z,101271
2018-05-07T08:08:09.011Z,101268
2018-05-07T08:10:38.444Z,101269
2018-05-07T08:13:09.038Z,101265
2018-05-07T08:15:39.058Z,101261
2018-05-07T08:18:09.265Z,101258
2018-05-07T08:20:37.694Z,101260
2018-05-07T08:23:05.978Z,101255
2018-05-07T08:25:34.287Z,101253
2018-05-07T08:28:02.731Z,101250
2018-05-07T08:30:31.364Z,101246
2018-05-07T08:33:00.511Z,101247
2018-05-07T08:35:28.902Z,101239
2018-05-07T08:37:57.217Z,101241
2018-05-07T08:40:26.298Z,101237
2018-05-07T08:42:54.643Z,101234
2018-05-07T08:45:22.957Z,101224
2018-05-07T08:47:51.266Z,101227
2018-05-07T08:50:19.612Z,101225
2018-05-07T08:52:48.761Z,101224
2018-05-07T08:55:17.048Z,101212
2018-05-07T08:57:45.335Z,101216
2018-05-07T09:00:13.696Z,101212
2018-05-07T09:02:42.131Z,101210
2018-05-07T09:05:10.596Z,101203
2018-05-07T09:07:39.931Z,101206
2018-05-07T09:10:08.271Z,101202
2018-05-07T09:12:36.556Z,101196
2018-05-07T09:15:04.910Z,101196
2018-05-07T09:17:33.308Z,101196
2018-05-07T09:20:01.902Z,101194
2018-05-07T09:22:31.005Z,101190
2018-05-07T09:25:00.128Z,101188
2018-05-07T09:27:28.397Z,101188
2018-05-07T09:29:56.755Z,101183
2018-05-07T09:32:25.312Z,101183
2018-05-07T09:34:53.812Z,101178
2018-05-07T09:37:22.913Z,101179
2018-05-07T09:39:51.239Z,101171
2018-05-07T09:42:19.636Z,101177
2018-05-07T09:44:48.083Z,101165
2018-05-07T09:47:16.415Z,101169
2018-05-07T09:49:45.626Z,101168
2018-05-07T09:52:14.135Z,101165
2018-05-07T09:54:42.462Z,101166
2018-05-07T09:57:10.958Z,101162
2018-05-07T09:59:40.177Z,101159
2018-05-07T10:02:08.498Z,101155
2018-05-07T10:04:36.853Z,101151
2018-05-07T10:07:05.256Z,101142
2018-05-07T10:09:34.002Z,101140
2018-05-07T10:12:02.389Z,101136
2018-05-07T10:14:30.705Z,101132
2018-05-07T10:17:00.255Z,101129
2018-05-07T10:19:28.766Z,101127
2018-05-07T10:21:57.255Z,101129
2018-05-07T10:24:25.556Z,101120
2018-05-07T10:26:54.226Z,101118
2018-05-07T10:29:22.609Z,101120
2018-05-07T10:31:51.165Z,101114
2018-05-07T10:34:19.474Z,101117
2018-05-07T10:36:47.805Z,101114
2018-05-07T10:39:16.415Z,101108
2018-05-07T10:41:44.907Z,101112
2018-05-07T10:44:13.320Z,101108
2018-05-07T10:46:43.576Z,101112
2018-05-07T10:49:11.976Z,101108
2018-05-07T10:51:40.441Z,101097
2018-05-07T10:54:08.840Z,101097
2018-05-07T10:56:37.358Z,101094
2018-05-07T10:59:05.704Z,101088
2018-05-07T11:01:34.104Z,101090
2018-05-07T11:04:03.140Z,101086
2018-05-07T11:06:31.496Z,101086
2018-05-07T11:09:00.547Z,101078
2018-05-07T11:11:28.906Z,101081
2018-05-07T11:13:57.203Z,101074
2018-05-07T11:16:25.541Z,101068
2018-05-07T11:18:54.631Z,101062
2018-05-07T11:21:23.761Z,101058
2018-05-07T11:23:52.087Z,101052
2018-05-07T11:26:20.362Z,101052
2018-05-07T11:28:48.699Z,101052
2018-05-07T11:31:17.047Z,101055
2018-05-07T11:33:46.016Z,101048
2018-05-07T11:36:15.136Z,101055
2018-05-07T11:38:43.662Z,101047
2018-05-07T11:41:11.951Z,101048
2018-05-07T11:43:40.287Z,101043
2018-05-07T11:46:08.602Z,101038
2018-05-07T11:48:36.991Z,101043
2018-05-07T11:51:05.537Z,101044
2018-05-07T11:53:33.865Z,101038
2018-05-07T11:56:02.240Z,101039
2018-05-07T11:58:31.361Z,101026
2018-05-07T12:00:59.725Z,101029
2018-05-07T12:03:28.377Z,101024
2018-05-07T12:05:56.902Z,101021
2018-05-07T12:08:25.236Z,101027
2018-05-07T12:10:53.796Z,101023
2018-05-07T12:13:22.995Z,101023
2018-05-07T12:15:52.719Z,101021
2018-05-07T12:18:23.048Z,101017
2018-05-07T12:20:52.789Z,101006
2018-05-07T12:23:23.004Z,101005
2018-05-07T12:25:51.362Z,101005
2018-05-07T12:28:19.970Z,101005
2018-05-07T12:30:49.043Z,101001
2018-05-07T12:33:17.413Z,101000
2018-05-07T12:35:45.831Z,100991
2018-05-07T12:38:14.916Z,100993
2018-05-07T12:40:44.033Z,100995
2018-05-07T12:43:12.349Z,100988
2018-05-07T12:45:40.666Z,100983
2018-05-07T12:48:09.737Z,100980
2018-05-07T12:50:38.193Z,100977
2018-05-07T12:53:06.562Z,100972
2018-05-07T12:55:34.971Z,100975
2018-05-07T12:58:03.381Z,100967
2018-05-07T13:00:32.636Z,100957
2018-05-07T13:03:01.173Z,100959
2018-05-07T13:05:30.289Z,100950
2018-05-07T13:07:58.718Z,100952
2018-05-07T13:10:27.017Z,100945
2018-05-07T13:12:55.417Z,100942
2018-05-07T13:15:24.477Z,100936
2018-05-07T13:17:52.856Z,100935
2018-05-07T13:20:21.213Z,100929
2018-05-07T13:22:49.543Z,100930
2018-05-07T13:25:19.617Z,100925
2018-05-07T13:27:47.943Z,100930
2018-05-07T13:30:16.435Z,100921
2018-05-07T13:32:44.901Z,100923
2018-05-07T13:35:13.327Z,100913
2018-05-07T13:37:41.649Z,100910
2018-05-07T13:40:10.869Z,100907
2018-05-07T13:42:39.182Z,100904
2018-05-07T13:45:07.624Z,100900
2018-05-07T13:47:36.043Z,100900
2018-05-07T13:50:04.437Z,100885
2018-05-07T13:52:33.541Z,100881
2018-05-07T13:55:02.751Z,100883
2018-05-07T13:57:31.975Z,100880
2018-05-07T14:00:00.516Z,100874
2018-05-07T14:02:28.841Z,100870
2018-05-07T14:04:57.179Z,100865
2018-05-07T14:07:26.428Z,100863
2018-05-07T14:09:54.967Z,100862
2018-05-07T14:12:24.056Z,100859
2018-05-07T14:14:53.192Z,100856
2018-05-07T14:17:21.543Z,100848
2018-05-07T14:19:50.666Z,100853
2018-05-07T14:22:18.993Z,100848
2018-05-07T14:24:47.392Z,100847
2018-05-07T14:27:17.632Z,100845
2018-05-07T14:29:45.973Z,100847
2018-05-07T14:32:15.216Z,100845
2018-05-07T14:34:43.543Z,100843
2018-05-07T14:37:11.911Z,100841
2018-05-07T14:39:40.315Z,100837
2018-05-07T14:42:09.571Z,100838
2018-05-07T14:44:38.148Z,100830
2018-05-07T14:47:06.586Z,100828
2018-05-07T14:49:35.764Z,100827
2018-05-07T14:52:04.177Z,100822
2018-05-07T14:54:32.624Z,100826
2018-05-07T14:57:01.039Z,100820
2018-05-07T14:59:29.496Z,100818
2018-05-07T15:01:58.626Z,100817
2018-05-07T15:04:27.008Z,100811
2018-05-07T15:06:55.311Z,100817
2018-05-07T15:09:24.442Z,100813
2018-05-07T15:11:53.674Z,100813
2018-05-07T15:14:25.247Z,100816
2018-05-07T15:16:53.818Z,100810
2018-05-07T15:19:22.127Z,100811
2018-05-07T15:21:50.688Z,100802
2018-05-07T15:24:19.145Z,100805
2018-05-07T15:26:47.487Z,100801
2018-05-07T15:29:15.975Z,100798
2018-05-07T15:31:45.898Z,100800
2018-05-07T15:34:16.238Z,100800
2018-05-07T15:36:45.650Z,100801
2018-05-07T15:39:14.022Z,100795
2018-05-07T15:41:42.380Z,100793
2018-05-07T15:44:11.514Z,100780
2018-05-07T15:46:39.817Z,100779
2018-05-07T15:49:08.189Z,100767
2018-05-07T15:51:36.553Z,100771
2018-05-07T15:54:04.878Z,100775
2018-05-07T15:56:33.211Z,100766
2018-05-07T15:59:01.553Z,100765
2018-05-07T16:01:29.914Z,100762
2018-05-07T16:03:59.254Z,100765
2018-05-07T16:06:27.726Z,100760
2018-05-07T16:08:56.173Z,100759
2018-05-07T16:11:25.871Z,100756
2018-05-07T16:13:54.146Z,100755
2018-05-07T16:16:22.521Z,100754
2018-05-07T16:18:50.886Z,100754
2018-05-07T16:21:19.230Z,100752
2018-05-07T16:23:47.720Z,100751
2018-05-07T16:26:16.079Z,100750
2018-05-07T16:28:44.637Z,100750
2018-05-07T16:31:13.857Z,100741
2018-05-07T16:33:42.113Z,100742
2018-05-07T16:36:11.437Z,100736
2018-05-07T16:38:39.877Z,100737
2018-05-07T16:41:08.290Z,100731
2018-05-07T16:43:36.813Z,100721
2018-05-07T16:46:05.190Z,100727
2018-05-07T16:48:33.666Z,100729
2018-05-07T16:51:01.962Z,100725
2018-05-07T16:53:30.373Z,100725
2018-05-07T16:55:59.511Z,100717
2018-05-07T16:58:27.904Z,100722
2018-05-07T17:00:56.273Z,100717
2018-05-07T17:03:24.917Z,100715
2018-05-07T17:05:54.068Z,100720
2018-05-07T17:08:22.610Z,100719
2018-05-07T17:10:50.899Z,100716
2018-05-07T17:13:19.301Z,100716
2018-05-07T17:15:47.749Z,100713
2018-05-07T17:18:16.378Z,100711
2018-05-07T17:20:44.695Z,100708
2018-05-07T17:23:13.858Z,100707
2018-05-07T17:25:42.203Z,100715
2018-05-07T17:28:10.653Z,100710
2018-05-07T17:30:39.763Z,100709
2018-05-07T17:33:08.074Z,100707
2018-05-07T17:35:36.484Z,100713
2018-05-07T17:38:05.015Z,100718
2018-05-07T17:40:33.445Z,100708
2018-05-07T17:43:03.745Z,100707
2018-05-07T17:48:56.908Z,100718
2018-05-07T17:51:26.010Z,100712
2018-05-07T17:53:54.429Z,100712
2018-05-07T17:56:22.823Z,100711
2018-05-07T17:58:52.063Z,100714
2018-05-07T18:01:20.394Z,100714
2018-05-07T18:03:48.722Z,100715
2018-05-07T18:06:17.092Z,100713
2018-05-07T18:08:45.458Z,100724
2018-05-07T18:11:13.796Z,100727
2018-05-07T18:13:43.108Z,100727
2018-05-07T18:16:11.475Z,100725
2018-05-07T18:18:40.614Z,100734
2018-05-07T18:21:08.990Z,100729
2018-05-07T18:23:37.505Z,100735
2018-05-07T18:26:05.871Z,100735
2018-05-07T18:28:34.636Z,100745
2018-05-07T18:31:02.969Z,100737
2018-05-07T18:33:32.191Z,100742
2018-05-07T18:36:00.676Z,100742
2018-05-07T18:38:29.054Z,100746
2018-05-07T18:40:58.568Z,100746
2018-05-07T18:43:27.057Z,100740
2018-05-07T18:45:55.393Z,100746
2018-05-07T18:48:23.768Z,100747
2018-05-07T18:50:52.369Z,100746
2018-05-07T18:53:20.879Z,100748
2018-05-07T18:55:49.395Z,100747
2018-05-07T18:58:17.850Z,100754
2018-05-07T19:00:46.391Z,100754
2018-05-07T19:03:14.894Z,100757
2018-05-07T19:05:43.285Z,100762
2018-05-07T19:08:11.717Z,100762
2018-05-07T19:10:41.093Z,100761
2018-05-07T19:13:09.576Z,100764
2018-05-07T19:15:38.932Z,100764
2018-05-07T19:18:07.364Z,100767
2018-05-07T19:20:36.796Z,100764
2018-05-07T19:23:05.143Z,100766
2018-05-07T19:25:34.291Z,100771
2018-05-07T19:28:02.644Z,100773
2018-05-07T19:30:30.971Z,100776
2018-05-07T19:32:59.411Z,100772
2018-05-07T19:35:27.791Z,100775
2018-05-07T19:37:56.109Z,100775
2018-05-07T19:40:24.479Z,100778
2018-05-07T19:42:52.857Z,100785
2018-05-07T19:45:21.297Z,100783
2018-05-07T19:47:49.817Z,100786
2018-05-07T19:50:18.236Z,100789
2018-05-07T19:52:47.451Z,100793
2018-05-07T19:55:16.061Z,100792
2018-05-07T19:57:44.627Z,100794
2018-05-07T20:00:13.183Z,100792
2018-05-07T20:02:42.444Z,100792
2018-05-07T20:05:10.881Z,100793
2018-05-07T20:07:39.224Z,100790
2018-05-07T20:10:08.348Z,100788
2018-05-07T20:12:36.784Z,100793
2018-05-07T20:15:05.204Z,100794
2018-05-07T20:17:33.696Z,100801
2018-05-07T20:20:02.279Z,100801
2018-05-07T20:22:30.671Z,100800
2018-05-07T20:24:59.106Z,100802
2018-05-07T20:27:28.204Z,100806
2018-05-07T20:29:57.365Z,100802
2018-05-07T20:32:25.725Z,100806
2018-05-07T20:34:54.209Z,100801
2018-05-07T20:37:22.761Z,100796
2018-05-07T20:39:51.978Z,100797
2018-05-07T20:42:20.365Z,100789
2018-05-07T20:44:48.694Z,100793
2018-05-07T20:47:16.997Z,100790
2018-05-07T20:49:45.373Z,100797
2018-05-07T20:52:14.254Z,100794
2018-05-07T20:54:43.429Z,100796
2018-05-07T20:57:12.629Z,100799
2018-05-07T20:59:41.828Z,100798
2018-05-07T21:02:10.149Z,100801
2018-05-07T21:04:38.498Z,100798
2018-05-07T21:07:07.638Z,100796
2018-05-07T21:09:36.141Z,100795
2018-05-07T21:12:04.455Z,100795
2018-05-07T21:14:33.568Z,100794
2018-05-07T21:17:01.939Z,100796
2018-05-07T21:19:30.310Z,100794
2018-05-07T21:21:59.591Z,100794
2018-05-07T21:24:28.719Z,100794
2018-05-07T21:26:57.948Z,100792
2018-05-07T21:29:26.489Z,100792
2018-05-07T21:31:55.699Z,100794
2018-05-07T21:34:24.045Z,100790
2018-05-07T21:36:52.568Z,100792
2018-05-07T21:39:21.080Z,100791
2018-05-07T21:41:49.409Z,100789
2018-05-07T21:44:18.485Z,100792
2018-05-07T21:46:46.788Z,100787
2018-05-07T21:49:15.193Z,100789
2018-05-07T21:51:43.874Z,100787
2018-05-07T21:54:12.213Z,100787
2018-05-07T21:56:41.348Z,100783
2018-05-07T21:59:09.658Z,100784
2018-05-07T22:01:38.206Z,100786
2018-05-07T22:04:06.553Z,100789
2018-05-07T22:06:35.668Z,100789
2018-05-07T22:09:04.213Z,100786
2018-05-07T22:11:32.553Z,100786
2018-05-07T22:14:00.933Z,100792
2018-05-07T22:16:29.309Z,100785
2018-05-07T22:18:57.864Z,100787
2018-05-07T22:21:26.172Z,100777
2018-05-07T22:23:54.715Z,100782
2018-05-07T22:26:23.879Z,100782
2018-05-07T22:28:52.303Z,100785
2018-05-07T22:31:20.648Z,100787
2018-05-07T22:33:49.710Z,100789
2018-05-07T22:36:18.190Z,100779
2018-05-07T22:38:46.553Z,100778
2018-05-07T22:41:14.905Z,100778
2018-05-07T22:43:44.718Z,100772
2018-05-07T22:46:13.035Z,100772
2018-05-07T22:48:41.386Z,100771
2018-05-07T22:51:09.692Z,100774
2018-05-07T22:53:38.004Z,100776
2018-05-07T22:56:07.092Z,100778
2018-05-07T22:58:35.411Z,100777
2018-05-07T23:01:03.833Z,100776
2018-05-07T23:03:32.168Z,100774
2018-05-07T23:06:00.558Z,100774
2018-05-07T23:08:28.919Z,100770
2018-05-07T23:10:57.369Z,100771
2018-05-07T23:13:27.532Z,100766
2018-05-07T23:15:56.112Z,100767
2018-05-07T23:18:24.415Z,100767
2018-05-07T23:20:52.673Z,100766
2018-05-07T23:23:21.054Z,100757
2018-05-07T23:25:49.586Z,100758
2018-05-07T23:28:17.989Z,100754
2018-05-07T23:30:46.442Z,100754
2018-05-07T23:33:14.771Z,100752
2018-05-07T23:35:43.068Z,100755
2018-05-07T23:38:11.374Z,100750
2018-05-07T23:40:40.519Z,100749
2018-05-07T23:43:09.803Z,100749
2018-05-07T23:45:38.198Z,100750
2018-05-07T23:48:06.677Z,100745
2018-05-07T23:50:35.013Z,100744
2018-05-07T23:53:04.263Z,100716
2018-05-07T23:55:32.617Z,100738
2018-05-07T23:58:00.933Z,100737
